메인 페이지
METAR-TAF:

METAR-TAF

공항 :

카트만두, 네팔

트리부반 국제공항

위도: 27-42N, 경도: 085-22E, 고도: 1337m

현재 날씨관측

예보는 11 시간 56분 전, 15:20시(UTC)에 발표되었습니다.
남서3kt
온도 14°C
습도 67%
기압 1018 hPa
시정: 6000m
고도 1500ft 상공 구름 조금
고도 3000ft 상공 구름 보통

METAR: VNKT 201520Z 23003KT 6000 FEW015 SCT030 14/08 Q1018 NOSIG

시각: 09:01 (03:16 UTC)

예보

예보는 16 시간 16분 전, 11:00시(UTC)에 발표되었습니다.
예보 대상 시간: 20일 12시부터 21일 12시까지 (UTC)
남서8kt
시정: 6000m
고도 1500ft 상공 구름 조금
고도 3000ft 상공 구름 보통
전환 중
20일 13시부터 20일 14시까지 (UTC)
여러 방향의 바람 2kt
시정: 5000m
고도 1500ft 상공 구름 조금
박무
전환 중
21일 00시부터 21일 02시까지 (UTC)
kt
시정: 3000m
고도 1000ft 상공 구름 조금
박무
확률 40%
21일 01시부터 21일 03시까지 (UTC)
시정: 1000m
박무
전환 중
21일 04시부터 21일 05시까지 (UTC)
남남동3kt
시정: 4000m
고도 1500ft 상공 구름 조금
연무
전환 중
21일 07시부터 21일 08시까지 (UTC)
10kt
시정: 6000m
고도 2000ft 상공 구름 조금
고도 10000ft 상공 구름 보통

TAF: VNKT 201100Z 2012/2112 22008KT 6000 FEW015 SCT030 BECMG 2013/2014 VRB02KT 5000 BR FEW015 BECMG 2100/2102 00000KT 3000 BR FEW010 PROB40 2101/2103 1000 BR BECMG 2104/2105 15003KT 4000 HZ FEW015 BECMG 2107/2108 27010KT 6000 FEW020 SCT100

4,000개 이상의 공항 관측 자료 및 예보 (METAR 및 TAF 보고).

지도상에서 검색 가능한 기상관측소가 노란 점과 빨간 점으로 표시되어 있습니다.

기상관측소 명을 보려면 표시 위로 마우스를 이동하세요.

날씨 관측과 예보를 보려면 클릭하세요.

지도 변경 : 확대하려면 엑스 표시가 있는 녹색 버튼, 축소하려면 빼기 표시가 있는 녹색 버튼, 다음 페이지의 지도를 보려면 녹색 화살표를 클릭하세요.


METAR-TAF: